Terminal Aerodrome Forecast
Issued by NWS

Home | Current Version | Previous Version | Text Only | Print | Product List | Glossary On
Versions: 1 2 3 4 5 6 7 8 9 10 11 12
000
FTUS42 TJSJ 251135
TAFISX
TAF
TISX 251135Z 2512/2612 07007KT P6SM VCSH FEW025
     FM251300 10013KT P6SM SCT025
     FM252330 08006KT P6SM VCSH SCT025=

USA.gov is the U.S. government's official web portal to all federal, state and local government web resources and services.